Allendale, Michigan
Current Conditions -  °F | °C
As of 11:53 PM on Sunday 19 Oct 2014 (Local Time) from KBIV Reporting Station
Overcast Overcast  
Wind Chill: 46°   Ceiling: 8000
Heat Index: 49°   Visibility: 10mi
Dew Point: 42°   Wind: 7mph
Humidity: 77%   Direction: 170°S
Pressure: 29.92"   Gusts: NA
Location:  42.97°N, 85.95°W
Report Text: KBIV 200353Z AUTO 17006KT 10SM BKN080 OVC100 09/06 A2992 RMK AO2 SLP135 T00940056 $
Loading
Personal Weather Stations






























Interactive Weather Map New forecast layout! Learn more

10-Day Weather Forecast

Advertisements
Track Severe Weather on mobile